Time;durP1;ratioP1;P1;durP2;ratioP2;P2;SDS_P1;SDS_P2;PMS_P1;PMS_P2;Temp;Humidity;BMP_temperature;BMP_pressure;BME280_temperature;BME280_humidity;BME280_pressure;Samples;Min_cycle;Max_cycle;Signal;HPM_P1;HPM_P2
2023/05/30 00:02:12;;;;;;;7.07;3.58;;;12.80;99.90;;;;;;5070004;28;20040;-58
2023/05/30 00:04:39;;;;;;;7.82;4.10;;;12.80;99.90;;;;;;5071312;28;20119;-60
2023/05/30 00:07:07;;;;;;;7.55;3.55;;;12.80;99.90;;;;;;5062273;28;20048;-61
2023/05/30 00:09:33;;;;;;;9.93;4.57;;;12.70;99.90;;;;;;5071719;28;20044;-61
2023/05/30 00:12:00;;;;;;;6.43;3.83;;;12.60;99.90;;;;;;5070659;28;20036;-61
2023/05/30 00:14:27;;;;;;;6.50;3.50;;;12.60;99.90;;;;;;5063364;28;20124;-59
2023/05/30 00:16:56;;;;;;;9.20;4.15;;;12.50;99.90;;;;;;5063582;28;20044;-60
2023/05/30 00:19:23;;;;;;;8.30;3.53;;;12.50;99.90;;;;;;5071403;28;20111;-60
2023/05/30 00:21:49;;;;;;;7.75;4.47;;;12.40;99.90;;;;;;5068492;28;20052;-58
2023/05/30 00:24:16;;;;;;;11.75;4.95;;;12.20;99.90;;;;;;5065505;28;20043;-60
2023/05/30 00:26:43;;;;;;;11.10;4.40;;;12.00;99.90;;;;;;5061076;28;20052;-56
2023/05/30 00:29:10;;;;;;;9.40;4.03;;;11.90;99.90;;;;;;5069942;28;20068;-58
2023/05/30 00:31:38;;;;;;;7.35;4.30;;;11.80;99.90;;;;;;5062642;28;20067;-55
2023/05/30 00:34:05;;;;;;;7.65;4.05;;;11.80;99.90;;;;;;5071158;28;20036;-56
2023/05/30 00:36:35;;;;;;;8.05;3.72;;;11.90;99.90;;;;;;5060857;28;20439;-57
2023/05/30 00:39:02;;;;;;;8.70;4.25;;;11.90;99.90;;;;;;5068966;28;20127;-60
2023/05/30 00:41:28;;;;;;;8.43;3.95;;;12.00;99.90;;;;;;5063224;28;20055;-59
2023/05/30 00:43:55;;;;;;;11.05;3.75;;;12.00;99.90;;;;;;5070491;28;20040;-55
2023/05/30 00:46:25;;;;;;;8.85;4.30;;;12.00;99.90;;;;;;5058140;28;20045;-58
2023/05/30 00:48:52;;;;;;;7.30;4.15;;;11.90;99.90;;;;;;5058365;28;20049;-56
2023/05/30 00:51:20;;;;;;;6.40;3.75;;;11.80;99.90;;;;;;5064855;28;20047;-59
2023/05/30 00:53:47;;;;;;;8.55;3.97;;;11.60;99.90;;;;;;5071957;28;20075;-59
2023/05/30 00:56:15;;;;;;;8.98;4.63;;;11.60;99.90;;;;;;5065209;28;20033;-59
2023/05/30 00:58:42;;;;;;;7.45;4.28;;;11.60;99.90;;;;;;5072674;28;20041;-58
2023/05/30 01:01:09;;;;;;;9.05;3.83;;;11.60;99.90;;;;;;5074984;28;20055;-57
2023/05/30 01:03:37;;;;;;;9.95;4.38;;;11.60;99.90;;;;;;5073322;28;20098;-61
2023/05/30 01:06:06;;;;;;;9.98;3.88;;;11.60;99.90;;;;;;5065896;28;20047;-60
2023/05/30 01:08:33;;;;;;;6.68;3.78;;;11.60;99.90;;;;;;5074234;28;20521;-59
2023/05/30 01:11:26;;;;;;;9.77;4.25;;;11.60;99.90;;;;;;5064932;28;20617;-60
2023/05/30 01:14:28;;;;;;;10.27;4.20;;;11.60;99.90;;;;;;5062358;28;20074;-60
2023/05/30 01:17:02;;;;;;;10.80;4.05;;;11.60;99.90;;;;;;5074326;28;20397;-61
2023/05/30 01:19:53;;;;;;;7.68;4.05;;;11.70;99.90;;;;;;5067122;28;20378;-60
2023/05/30 01:22:49;;;;;;;12.52;3.80;;;11.60;99.90;;;;;;5067069;28;20048;-59
2023/05/30 01:25:46;;;;;;;8.05;3.97;;;11.50;99.90;;;;;;5072964;28;20480;-61
2023/05/30 01:28:21;;;;;;;8.30;4.00;;;11.50;99.90;;;;;;5074655;28;20111;-60
2023/05/30 01:30:52;;;;;;;8.95;4.20;;;11.40;99.90;;;;;;5061507;28;20051;-59
2023/05/30 01:33:20;;;;;;;9.52;3.95;;;11.40;99.90;;;;;;5066705;28;20051;-56
2023/05/30 01:35:47;;;;;;;8.90;4.45;;;11.30;99.90;;;;;;5074158;28;20400;-57
2023/05/30 01:38:15;;;;;;;12.75;4.32;;;11.30;99.90;;;;;;5074461;28;20036;-59
2023/05/30 01:40:56;;;;;;;8.35;4.65;;;11.30;99.90;;;;;;5069340;28;20041;-59
2023/05/30 01:43:43;;;;;;;6.78;3.75;;;11.30;99.90;;;;;;5070864;28;20055;-59
2023/05/30 01:46:33;;;;;;;10.98;4.65;;;11.30;99.90;;;;;;5064200;28;20559;-61
2023/05/30 01:49:18;;;;;;;8.77;3.72;;;11.40;99.90;;;;;;5053324;28;20040;-57
2023/05/30 01:51:56;;;;;;;10.88;4.25;;;11.40;99.90;;;;;;5067477;28;20054;-60
2023/05/30 01:54:24;;;;;;;9.93;4.63;;;11.40;99.90;;;;;;5073036;28;20402;-61
2023/05/30 01:56:56;;;;;;;10.35;4.70;;;11.40;99.90;;;;;;5055585;28;20045;-60
2023/05/30 01:59:25;;;;;;;8.40;4.35;;;11.50;99.90;;;;;;5072202;28;20625;-60
2023/05/30 02:01:54;;;;;;;8.68;4.22;;;11.50;99.90;;;;;;5063646;28;20098;-61
2023/05/30 02:04:21;;;;;;;8.68;3.90;;;11.40;99.90;;;;;;5072936;28;20097;-60
2023/05/30 02:06:48;;;;;;;10.57;4.82;;;11.50;99.90;;;;;;5071373;28;20044;-60
2023/05/30 02:09:16;;;;;;;7.53;3.90;;;11.40;99.90;;;;;;5047778;28;20036;-60
2023/05/30 02:11:43;;;;;;;9.05;4.28;;;11.40;99.90;;;;;;5062007;28;20055;-60
2023/05/30 02:14:09;;;;;;;9.80;4.35;;;11.30;99.90;;;;;;5067980;28;20159;-61
2023/05/30 02:16:36;;;;;;;13.88;4.05;;;11.30;99.90;;;;;;5073375;28;20470;-61
2023/05/30 02:19:03;;;;;;;8.82;4.22;;;11.30;99.90;;;;;;5071966;28;20040;-60
2023/05/30 02:21:30;;;;;;;8.85;4.30;;;11.30;99.90;;;;;;5069451;28;20144;-59
2023/05/30 02:23:57;;;;;;;9.10;4.55;;;11.50;99.90;;;;;;5066439;28;20049;-59
2023/05/30 02:26:26;;;;;;;7.35;4.30;;;11.30;99.90;;;;;;5071276;28;20075;-58
2023/05/30 02:28:53;;;;;;;7.13;3.95;;;11.40;99.90;;;;;;5072865;28;20780;-61
2023/05/30 02:31:19;;;;;;;12.43;4.47;;;11.30;99.90;;;;;;5070905;28;20032;-58
2023/05/30 02:33:46;;;;;;;8.77;4.50;;;11.30;99.90;;;;;;5065187;28;20049;-61
2023/05/30 02:36:13;;;;;;;7.93;4.05;;;11.30;99.90;;;;;;5071712;28;20052;-60
2023/05/30 02:38:40;;;;;;;8.57;4.07;;;11.40;99.90;;;;;;5066669;28;20043;-60
2023/05/30 02:41:07;;;;;;;9.07;4.57;;;11.10;99.90;;;;;;5071777;28;20041;-60
2023/05/30 02:43:34;;;;;;;8.68;4.57;;;11.10;99.90;;;;;;5071107;28;20055;-61
2023/05/30 02:46:04;;;;;;;8.73;4.47;;;11.10;99.90;;;;;;5071396;28;20098;-61
2023/05/30 02:48:32;;;;;;;8.57;4.25;;;11.10;99.90;;;;;;5067953;28;20056;-60
2023/05/30 02:50:59;;;;;;;8.65;4.30;;;11.10;99.90;;;;;;5072883;28;20043;-60
2023/05/30 02:53:26;;;;;;;7.45;4.45;;;11.10;99.90;;;;;;5063035;28;20397;-60
2023/05/30 02:55:56;;;;;;;9.52;4.00;;;11.10;99.90;;;;;;5069452;28;20098;-60
2023/05/30 02:58:25;;;;;;;9.77;4.78;;;11.00;99.90;;;;;;5066257;28;20050;-61
2023/05/30 03:00:59;;;;;;;8.38;4.30;;;11.00;99.90;;;;;;5070654;28;20044;-59
2023/05/30 03:03:26;;;;;;;9.55;4.57;;;11.00;99.90;;;;;;5071161;28;20048;-61
2023/05/30 03:06:02;;;;;;;7.75;3.95;;;11.00;99.90;;;;;;5058029;28;20052;-61
2023/05/30 03:08:44;;;;;;;7.93;3.95;;;11.00;99.90;;;;;;5071323;28;20048;-60
2023/05/30 03:11:12;;;;;;;9.00;4.13;;;11.00;99.90;;;;;;5066370;28;20527;-61
2023/05/30 03:13:40;;;;;;;8.10;4.13;;;11.00;99.90;;;;;;5071087;28;20048;-60
2023/05/30 03:16:07;;;;;;;8.65;4.50;;;11.00;99.90;;;;;;5061158;28;20036;-61
2023/05/30 03:18:34;;;;;;;7.18;4.07;;;11.10;99.90;;;;;;5071255;28;20048;-60
2023/05/30 03:21:00;;;;;;;7.55;4.60;;;11.10;99.90;;;;;;5065589;28;20036;-61
2023/05/30 03:23:27;;;;;;;8.00;4.53;;;11.10;99.90;;;;;;5070983;28;20048;-59
2023/05/30 03:25:54;;;;;;;7.10;3.97;;;11.00;99.90;;;;;;5068681;28;20140;-60
2023/05/30 03:28:21;;;;;;;;;;;11.00;99.90;;;;;;5062592;28;20050;-61
2023/05/30 03:31:07;;;;;;;8.93;4.72;;;11.00;99.90;;;;;;5063716;28;19985;-60
2023/05/30 03:33:34;;;;;;;13.88;5.10;;;11.00;99.90;;;;;;5061813;28;20086;-59
2023/05/30 03:36:02;;;;;;;8.93;4.75;;;11.00;99.90;;;;;;5062994;28;20048;-60
2023/05/30 03:38:29;;;;;;;9.98;4.28;;;11.00;99.90;;;;;;5064817;28;20040;-61
2023/05/30 03:40:56;;;;;;;10.13;5.07;;;10.90;99.90;;;;;;5071398;28;20041;-60
2023/05/30 03:43:23;;;;;;;9.90;5.13;;;10.90;99.90;;;;;;5064595;28;20060;-60
2023/05/30 03:45:50;;;;;;;9.50;5.55;;;11.00;99.90;;;;;;5062942;28;20485;-60
2023/05/30 03:48:17;;;;;;;12.77;4.82;;;11.00;99.90;;;;;;5070438;28;20048;-60
2023/05/30 03:50:44;;;;;;;8.70;4.38;;;11.00;99.90;;;;;;5069883;28;20048;-60
2023/05/30 03:53:11;;;;;;;8.45;4.35;;;11.00;99.90;;;;;;5069452;28;20043;-60
2023/05/30 03:55:39;;;;;;;9.43;4.85;;;11.00;99.90;;;;;;5068479;28;20045;-60
2023/05/30 03:58:06;;;;;;;;;;;11.00;99.90;;;;;;5067156;28;20053;-61
2023/05/30 04:00:33;;;;;;;8.30;4.63;;;10.80;99.90;;;;;;5064488;28;20011;-60
2023/05/30 04:03:00;;;;;;;17.98;4.82;;;10.70;99.90;;;;;;5065225;28;20137;-60
2023/05/30 04:05:27;;;;;;;;;;;10.70;99.90;;;;;;5069585;28;20119;-61
2023/05/30 04:07:53;;;;;;;8.02;4.55;;;10.70;99.90;;;;;;5070129;28;19963;-61
2023/05/30 04:10:20;;;;;;;9.73;4.93;;;10.60;99.90;;;;;;5068746;28;20072;-60
2023/05/30 04:12:48;;;;;;;9.20;4.82;;;10.70;99.90;;;;;;5067058;28;20045;-61
2023/05/30 04:15:16;;;;;;;10.40;5.10;;;10.70;99.90;;;;;;5069490;28;20075;-61
2023/05/30 04:17:43;;;;;;;8.93;5.05;;;10.80;99.90;;;;;;5069944;28;20433;-60
2023/05/30 04:20:12;;;;;;;11.82;4.93;;;10.90;99.90;;;;;;5065221;28;20044;-60
2023/05/30 04:22:41;;;;;;;11.23;5.13;;;10.90;99.90;;;;;;5070043;28;20094;-59
2023/05/30 04:25:08;;;;;;;10.07;5.03;;;11.00;99.90;;;;;;5053117;28;20032;-60
2023/05/30 04:27:39;;;;;;;7.78;4.38;;;11.10;99.90;;;;;;5067451;28;20045;-61
2023/05/30 04:30:16;;;;;;;9.57;4.80;;;11.10;99.90;;;;;;5053623;28;20047;-61
2023/05/30 04:32:44;;;;;;;8.00;4.57;;;11.20;99.90;;;;;;5069722;28;20041;-61
2023/05/30 04:35:13;;;;;;;10.75;4.70;;;11.20;99.90;;;;;;5082142;28;20098;-59
2023/05/30 04:37:44;;;;;;;9.15;4.63;;;11.20;99.90;;;;;;5066764;28;20481;-61
2023/05/30 04:40:12;;;;;;;9.63;5.25;;;11.20;99.90;;;;;;5072603;28;20041;-61
2023/05/30 04:42:43;;;;;;;10.60;5.30;;;11.30;99.90;;;;;;5067491;28;20053;-61
2023/05/30 04:45:14;;;;;;;8.80;4.50;;;11.30;99.90;;;;;;5076245;28;20040;-61
2023/05/30 04:47:45;;;;;;;9.43;4.85;;;11.40;99.90;;;;;;5076108;28;20044;-61
2023/05/30 04:50:16;;;;;;;15.00;5.07;;;11.40;99.90;;;;;;5067882;28;20531;-61
2023/05/30 04:52:43;;;;;;;8.35;4.43;;;11.50;99.90;;;;;;5067918;28;20072;-61
2023/05/30 04:55:13;;;;;;;12.40;5.30;;;11.50;99.90;;;;;;5077165;28;20036;-60
2023/05/30 04:57:40;;;;;;;25.75;8.38;;;11.60;99.90;;;;;;5072262;28;20044;-61
2023/05/30 05:00:13;;;;;;;;;;;11.60;99.90;;;;;;5076745;28;20048;-60
2023/05/30 05:02:44;;;;;;;9.90;6.03;;;11.60;99.90;;;;;;5075227;28;19924;-61
2023/05/30 05:05:11;;;;;;;11.73;6.43;;;11.70;99.90;;;;;;5077191;28;20046;-60
2023/05/30 05:07:38;;;;;;;10.68;6.40;;;11.70;99.90;;;;;;5076952;28;20064;-61
2023/05/30 05:10:09;;;;;;;9.30;5.47;;;11.80;99.90;;;;;;5068448;28;20052;-60
2023/05/30 05:12:35;;;;;;;9.48;4.80;;;11.90;99.90;;;;;;5077426;28;20068;-61
2023/05/30 05:15:02;;;;;;;8.95;4.85;;;11.90;99.90;;;;;;5068457;28;20123;-57
2023/05/30 05:17:29;;;;;;;10.98;4.55;;;12.00;99.90;;;;;;5076894;28;20048;-60
2023/05/30 05:19:56;;;;;;;10.43;5.10;;;12.10;99.90;;;;;;5067404;28;20090;-59
2023/05/30 05:22:25;;;;;;;11.43;5.55;;;12.10;99.90;;;;;;5074485;28;20123;-61
2023/05/30 05:24:52;;;;;;;12.52;5.38;;;12.20;99.90;;;;;;5075692;28;20086;-60
2023/05/30 05:27:19;;;;;;;10.70;4.95;;;12.40;99.90;;;;;;5076647;28;20039;-61
2023/05/30 05:29:46;;;;;;;9.48;5.03;;;12.50;99.90;;;;;;5071601;28;20082;-61
2023/05/30 05:32:13;;;;;;;9.75;5.25;;;12.60;99.90;;;;;;5068383;28;20106;-61
2023/05/30 05:34:40;;;;;;;8.80;4.35;;;12.80;99.90;;;;;;5077599;28;20090;-59
2023/05/30 05:37:07;;;;;;;13.75;5.40;;;12.90;99.90;;;;;;5058083;28;20087;-61
2023/05/30 05:39:34;;;;;;;11.57;5.78;;;13.00;99.90;;;;;;5059896;28;20456;-61
2023/05/30 05:42:04;;;;;;;15.68;5.35;;;13.10;99.90;;;;;;5063786;28;20037;-61
2023/05/30 05:44:30;;;;;;;10.57;5.70;;;13.30;99.90;;;;;;5073981;28;20076;-61
2023/05/30 05:46:57;;;;;;;11.18;5.40;;;13.40;99.90;;;;;;5067765;28;20043;-62
2023/05/30 05:49:24;;;;;;;12.40;6.00;;;13.50;99.90;;;;;;5065294;28;20124;-61
2023/05/30 05:51:52;;;;;;;15.15;6.75;;;13.70;99.90;;;;;;5073729;28;20131;-60
2023/05/30 05:54:18;;;;;;;;;;;13.70;99.90;;;;;;5067614;28;20037;-61
2023/05/30 05:56:46;;;;;;;12.40;5.82;;;13.70;99.90;;;;;;5065135;28;19920;-61
2023/05/30 05:59:15;;;;;;;16.35;6.15;;;13.80;99.90;;;;;;5072046;28;20036;-61
2023/05/30 06:01:42;;;;;;;12.45;7.20;;;14.00;99.90;;;;;;5069914;28;20477;-61
2023/05/30 06:04:11;;;;;;;12.50;6.35;;;14.10;99.90;;;;;;5072800;28;20037;-61
2023/05/30 06:06:38;;;;;;;13.73;6.22;;;14.20;99.90;;;;;;5072413;28;20045;-61
2023/05/30 06:09:05;;;;;;;13.02;6.45;;;14.10;99.90;;;;;;5064203;28;20037;-59
2023/05/30 06:11:32;;;;;;;13.90;6.68;;;14.20;99.90;;;;;;5072667;28;20044;-61
2023/05/30 06:13:59;;;;;;;13.95;7.32;;;14.30;99.90;;;;;;5064599;28;20048;-62
2023/05/30 06:16:26;;;;;;;12.25;5.78;;;14.40;99.90;;;;;;5072457;28;20040;-60
2023/05/30 06:18:53;;;;;;;14.57;6.70;;;14.50;99.90;;;;;;5072389;28;20102;-61
2023/05/30 06:21:19;;;;;;;12.80;6.85;;;14.60;99.90;;;;;;5063871;28;21457;-60
2023/05/30 06:23:46;;;;;;;13.07;7.10;;;14.70;99.90;;;;;;5068883;28;20485;-61
2023/05/30 06:26:13;;;;;;;12.52;6.65;;;14.70;99.90;;;;;;5071606;28;20055;-59
2023/05/30 06:28:40;;;;;;;12.85;6.53;;;14.90;99.90;;;;;;5071783;28;20143;-61
2023/05/30 06:31:06;;;;;;;14.85;6.72;;;15.00;99.90;;;;;;5064121;28;20049;-60
2023/05/30 06:33:33;;;;;;;13.30;6.45;;;14.90;99.90;;;;;;5072858;28;20036;-61
2023/05/30 06:36:00;;;;;;;11.80;6.50;;;14.90;99.90;;;;;;5072081;28;20037;-61
2023/05/30 06:38:27;;;;;;;16.75;6.10;;;15.00;99.90;;;;;;5072968;28;20048;-61
2023/05/30 06:40:54;;;;;;;13.82;6.75;;;15.10;99.90;;;;;;5061185;28;20051;-60
2023/05/30 06:43:21;;;;;;;12.88;6.32;;;15.00;99.90;;;;;;5072841;28;20481;-61
2023/05/30 06:45:48;;;;;;;17.50;7.22;;;15.10;99.90;;;;;;5071064;28;20234;-61
2023/05/30 06:48:14;;;;;;;11.20;5.93;;;15.20;99.90;;;;;;5071947;28;20405;-61
2023/05/30 06:50:41;;;;;;;15.63;6.32;;;15.30;99.90;;;;;;5059701;28;20056;-61
2023/05/30 06:53:08;;;;;;;15.82;5.45;;;15.30;99.90;;;;;;5070585;28;20046;-61
2023/05/30 06:55:35;;;;;;;17.75;6.72;;;15.30;99.90;;;;;;5069943;28;20048;-61
2023/05/30 06:58:04;;;;;;;18.20;6.82;;;15.30;99.90;;;;;;5072414;28;20045;-61
2023/05/30 07:00:31;;;;;;;13.60;6.65;;;15.30;99.90;;;;;;5062097;28;20047;-61
2023/05/30 07:03:00;;;;;;;14.10;6.55;;;15.40;99.90;;;;;;5071836;28;20045;-62
2023/05/30 07:05:27;;;;;;;15.38;6.22;;;15.40;99.90;;;;;;5071388;28;20045;-61
2023/05/30 07:07:54;;;;;;;16.92;6.07;;;15.40;99.90;;;;;;5066693;28;20072;-61
2023/05/30 07:10:21;;;;;;;10.43;5.97;;;15.50;99.90;;;;;;5072138;28;20050;-62
2023/05/30 07:12:48;;;;;;;13.35;6.47;;;15.50;99.90;;;;;;5071518;28;20044;-61
2023/05/30 07:15:15;;;;;;;16.23;6.55;;;15.40;99.90;;;;;;5072000;28;20052;-61
2023/05/30 07:17:41;;;;;;;11.02;5.40;;;15.30;99.90;;;;;;5066684;28;20057;-61
2023/05/30 07:20:08;;;;;;;13.32;5.95;;;15.30;99.90;;;;;;5071643;28;20509;-62
2023/05/30 07:22:37;;;;;;;14.27;6.88;;;15.40;99.90;;;;;;5071269;28;20050;-61
2023/05/30 07:25:06;;;;;;;12.75;5.57;;;15.50;99.90;;;;;;5069223;28;20048;-61
2023/05/30 07:27:33;;;;;;;12.57;5.97;;;15.60;99.90;;;;;;5070800;28;20485;-61
2023/05/30 07:30:00;;;;;;;10.35;5.18;;;15.70;99.90;;;;;;5071227;28;20125;-60
2023/05/30 07:32:27;;;;;;;12.15;5.82;;;15.70;99.90;;;;;;5069010;28;20060;-62
2023/05/30 07:34:54;;;;;;;9.98;6.22;;;15.80;99.90;;;;;;5069006;28;20050;-60
2023/05/30 07:37:20;;;;;;;10.90;5.47;;;15.90;99.90;;;;;;5061685;28;20109;-61
2023/05/30 07:39:47;;;;;;;12.27;5.50;;;16.00;99.90;;;;;;5061272;28;20048;-61
2023/05/30 07:42:14;;;;;;;18.13;6.60;;;16.10;99.90;;;;;;5070939;28;20040;-61
2023/05/30 07:44:41;;;;;;;10.48;6.00;;;16.40;99.90;;;;;;5070614;28;20062;-61
2023/05/30 07:47:07;;;;;;;10.95;5.85;;;16.60;99.90;;;;;;5070456;28;20048;-60
2023/05/30 07:49:34;;;;;;;10.90;5.93;;;16.80;99.90;;;;;;5071108;28;20055;-62
2023/05/30 07:52:01;;;;;;;10.40;5.32;;;17.00;99.90;;;;;;5069975;28;20036;-61
2023/05/30 07:54:28;;;;;;;8.07;4.88;;;17.20;99.90;;;;;;5058864;28;20037;-61
2023/05/30 07:56:54;;;;;;;10.13;5.00;;;17.30;99.90;;;;;;5067389;28;20489;-62
2023/05/30 07:59:21;;;;;;;10.75;5.43;;;17.40;99.90;;;;;;5070988;28;20138;-60
2023/05/30 08:01:48;;;;;;;11.23;5.68;;;17.60;99.90;;;;;;5063754;28;20429;-62
2023/05/30 08:04:15;;;;;;;7.13;5.05;;;17.70;99.90;;;;;;5070730;28;20044;-62
2023/05/30 08:06:41;;;;;;;9.52;5.53;;;17.70;99.90;;;;;;5065048;28;20494;-62
2023/05/30 08:09:08;;;;;;;10.75;5.47;;;17.80;99.90;;;;;;5068783;28;20039;-61
2023/05/30 08:11:35;;;;;;;11.25;5.50;;;18.00;99.90;;;;;;5067260;28;20041;-62
2023/05/30 08:14:03;;;;;;;11.85;5.95;;;18.20;99.90;;;;;;5068072;28;20123;-61
2023/05/30 08:16:29;;;;;;;12.80;5.07;;;18.30;99.90;;;;;;5070001;28;20404;-59
2023/05/30 08:18:57;;;;;;;9.95;5.47;;;18.30;99.90;;;;;;5064131;28;20451;-62
2023/05/30 08:21:24;;;;;;;13.57;5.45;;;18.40;99.90;;;;;;5062733;28;20568;-61
2023/05/30 08:23:51;;;;;;;13.60;5.40;;;18.50;99.90;;;;;;5070153;28;20039;-62
2023/05/30 08:26:18;;;;;;;9.90;5.32;;;18.70;99.90;;;;;;5061000;28;20371;-62
2023/05/30 08:28:45;;;;;;;11.27;5.85;;;18.70;99.90;;;;;;5070885;28;20397;-62
2023/05/30 08:31:12;;;;;;;10.13;5.90;;;18.90;99.90;;;;;;5070372;28;20042;-62
2023/05/30 08:33:39;;;;;;;23.23;8.02;;;19.00;99.90;;;;;;5071045;28;20044;-62
2023/05/30 08:36:06;;;;;;;16.83;6.75;;;19.10;99.90;;;;;;5060216;28;20041;-62
2023/05/30 08:38:33;;;;;;;12.25;5.47;;;19.10;99.90;;;;;;5070855;28;20236;-61
2023/05/30 08:41:00;;;;;;;;;;;19.30;99.90;;;;;;5069932;28;20037;-62
2023/05/30 08:43:27;;;;;;;13.82;6.13;;;19.30;99.90;;;;;;5070730;28;19920;-62
2023/05/30 08:45:54;;;;;;;12.73;6.20;;;19.30;99.90;;;;;;5062148;28;20049;-61
2023/05/30 08:48:23;;;;;;;;;;;19.30;99.90;;;;;;5071031;28;20090;-61
2023/05/30 08:50:51;;;;;;;13.88;5.95;;;19.40;99.90;;;;;;5070469;28;20342;-60
2023/05/30 08:53:30;;;;;;;13.10;5.78;;;19.60;99.90;;;;;;5061792;28;20043;-60
2023/05/30 08:56:07;;;;;;;12.45;5.43;;;19.60;99.90;;;;;;5070553;28;20052;-61
2023/05/30 08:58:39;;;;;;;12.50;5.82;;;19.60;99.90;;;;;;5070530;28;20063;-61
2023/05/30 09:01:09;;;;;;;9.48;5.25;;;19.80;99.90;;;;;;5068982;28;20119;-60
2023/05/30 09:03:42;;;;;;;9.32;5.55;;;20.00;99.90;;;;;;5066637;28;20488;-61
2023/05/30 09:06:10;;;;;;;9.38;5.47;;;20.10;99.90;;;;;;5070183;28;20110;-62
2023/05/30 09:08:39;;;;;;;9.63;5.60;;;20.00;99.90;;;;;;5066560;28;20119;-60
2023/05/30 09:11:07;;;;;;;13.45;6.38;;;20.00;99.90;;;;;;5070028;28;20131;-61
2023/05/30 09:13:34;;;;;;;13.98;6.07;;;20.10;99.90;;;;;;5069735;28;20041;-58
2023/05/30 09:16:01;;;;;;;12.40;5.90;;;20.30;99.90;;;;;;5065622;28;20048;-61
2023/05/30 09:18:30;;;;;;;11.15;5.40;;;20.30;99.90;;;;;;5066278;28;20036;-61
2023/05/30 09:20:58;;;;;;;13.25;5.47;;;20.30;99.90;;;;;;5072706;28;20124;-62
2023/05/30 09:23:26;;;;;;;6.57;4.95;;;20.40;99.90;;;;;;5065168;28;20044;-61
2023/05/30 09:25:54;;;;;;;7.90;4.85;;;20.40;99.90;;;;;;5073282;28;20508;-61
2023/05/30 09:28:25;;;;;;;9.45;5.00;;;20.30;99.90;;;;;;5073488;28;20071;-61
2023/05/30 09:30:52;;;;;;;10.40;6.13;;;20.30;99.90;;;;;;5059932;28;20049;-61
2023/05/30 09:33:20;;;;;;;11.02;4.82;;;20.30;99.90;;;;;;5072526;28;20045;-62
2023/05/30 09:35:53;;;;;;;9.82;6.07;;;20.40;99.90;;;;;;5071287;28;20063;-62
2023/05/30 09:38:22;;;;;;;10.88;5.57;;;20.50;99.90;;;;;;5072784;28;20036;-62
2023/05/30 09:40:54;;;;;;;9.65;5.22;;;20.70;99.90;;;;;;5072753;28;20042;-61
2023/05/30 09:43:35;;;;;;;12.23;5.97;;;20.80;99.90;;;;;;5066784;28;20127;-62
2023/05/30 09:46:05;;;;;;;15.30;5.90;;;20.80;99.90;;;;;;5073201;28;20055;-62
2023/05/30 09:48:32;;;;;;;13.60;6.63;;;21.00;99.90;;;;;;5073533;28;20075;-61
2023/05/30 09:51:00;;;;;;;14.95;6.53;;;21.00;99.90;;;;;;5058367;28;20124;-61
2023/05/30 09:53:29;;;;;;;13.00;5.97;;;21.10;99.90;;;;;;5073378;28;20389;-62
2023/05/30 09:55:57;;;;;;;11.85;5.47;;;21.20;99.90;;;;;;5073170;28;20127;-61
2023/05/30 09:58:24;;;;;;;11.90;5.35;;;21.20;99.90;;;;;;5073534;28;20049;-61
2023/05/30 10:00:52;;;;;;;12.15;6.30;;;21.20;99.90;;;;;;5061275;28;20041;-61
2023/05/30 10:03:41;;;;;;;12.93;6.20;;;21.30;99.90;;;;;;5073211;28;20045;-61
2023/05/30 10:06:16;;;;;;;10.10;5.75;;;21.20;99.90;;;;;;5073048;28;20071;-61
2023/05/30 10:08:46;;;;;;;8.15;5.78;;;21.20;99.90;;;;;;5073500;28;20040;-59
2023/05/30 10:11:13;;;;;;;9.88;5.75;;;21.30;99.90;;;;;;5065902;28;20036;-60
2023/05/30 10:13:40;;;;;;;11.60;5.55;;;21.40;99.90;;;;;;5073265;28;20093;-61
2023/05/30 10:16:14;;;;;;;13.35;5.93;;;21.40;99.90;;;;;;5065552;28;20037;-61
2023/05/30 10:18:53;;;;;;;11.02;5.50;;;21.40;99.90;;;;;;5071993;28;20040;-61
2023/05/30 10:21:22;;;;;;;10.75;6.28;;;21.30;99.90;;;;;;5072833;28;20400;-62
2023/05/30 10:23:51;;;;;;;13.15;5.63;;;21.40;99.90;;;;;;5063113;28;20050;-61
2023/05/30 10:26:20;;;;;;;9.65;5.10;;;21.50;99.90;;;;;;5072401;28;20409;-60
2023/05/30 10:28:49;;;;;;;10.02;5.47;;;21.60;99.90;;;;;;5071929;28;20036;-61
2023/05/30 10:31:16;;;;;;;13.45;5.65;;;21.70;99.90;;;;;;5072614;28;20036;-61
2023/05/30 10:33:48;;;;;;;;;;;21.80;99.90;;;;;;5066272;28;20040;-60
2023/05/30 10:36:23;;;;;;;9.20;5.60;;;21.80;99.90;;;;;;5071927;28;19982;-60
2023/05/30 10:39:33;;;;;;;9.57;5.63;;;21.90;99.90;;;;;;5072361;28;20036;-61
2023/05/30 10:42:21;;;;;;;11.30;5.90;;;22.10;99.90;;;;;;5066946;28;20037;-61
2023/05/30 10:45:09;;;;;;;29.20;12.27;;;22.20;99.90;;;;;;5066620;28;20033;-61
2023/05/30 10:47:56;;;;;;;8.68;5.35;;;22.20;99.90;;;;;;5066742;28;20040;-62
2023/05/30 10:50:30;;;;;;;9.80;5.75;;;22.20;99.90;;;;;;5072207;28;20045;-61
2023/05/30 10:52:57;;;;;;;18.15;6.40;;;22.60;99.90;;;;;;5070385;28;20115;-61
2023/05/30 10:55:28;;;;;;;11.43;5.20;;;22.70;99.70;;;;;;5071263;28;20055;-60
2023/05/30 10:57:55;;;;;;;10.35;5.68;;;22.70;99.90;;;;;;5071756;28;20127;-62
2023/05/30 11:00:24;;;;;;;6.85;5.25;;;22.70;99.90;;;;;;5071860;28;20040;-60
2023/05/30 11:02:54;;;;;;;9.35;5.53;;;22.70;99.70;;;;;;5070530;28;20124;-61
2023/05/30 11:05:27;;;;;;;7.85;4.60;;;23.00;99.40;;;;;;5065723;28;20467;-62
2023/05/30 11:07:56;;;;;;;8.57;5.20;;;22.90;97.90;;;;;;5071923;28;20485;-61
2023/05/30 11:10:25;;;;;;;9.35;5.20;;;22.70;98.20;;;;;;5071657;28;20505;-61
2023/05/30 11:12:52;;;;;;;6.82;4.75;;;22.60;98.30;;;;;;5065852;28;20053;-61
2023/05/30 11:15:35;;;;;;;10.25;5.22;;;22.70;98.00;;;;;;5063502;28;20076;-62
2023/05/30 11:18:17;;;;;;;8.20;4.72;;;22.90;98.60;;;;;;5071990;28;20047;-62
2023/05/30 11:20:54;;;;;;;6.53;3.95;;;23.10;97.90;;;;;;5071512;28;20040;-61
2023/05/30 11:23:23;;;;;;;;;;;23.20;97.10;;;;;;5066626;28;20120;-62
2023/05/30 11:25:55;;;;;;;5.45;4.13;;;23.40;96.10;;;;;;5065726;28;19924;-61
2023/05/30 11:28:35;;;;;;;7.00;4.35;;;23.70;95.10;;;;;;5071311;28;20040;-60
2023/05/30 11:31:19;;;;;;;6.95;3.88;;;24.00;96.30;;;;;;5071678;28;20039;-62
2023/05/30 11:33:47;;;;;;;7.55;4.40;;;23.80;93.10;;;;;;5060014;28;20125;-62
2023/05/30 11:36:13;;;;;;;;;;;23.40;94.60;;;;;;5068982;28;20120;-61
2023/05/30 11:38:46;;;;;;;7.60;3.97;;;23.10;93.00;;;;;;5063681;28;19920;-60
2023/05/30 11:41:15;;;;;;;9.93;4.57;;;22.50;93.20;;;;;;5070176;28;20051;-61
2023/05/30 11:43:43;;;;;;;6.40;4.00;;;22.50;93.50;;;;;;5070958;28;20424;-60
2023/05/30 11:46:11;;;;;;;10.73;4.05;;;23.10;94.00;;;;;;5054733;28;20091;-61
2023/05/30 11:48:38;;;;;;;6.95;4.28;;;23.30;92.50;;;;;;5070143;28;20044;-61
2023/05/30 11:51:08;;;;;;;;;;;23.60;92.00;;;;;;5070420;28;20049;-61
2023/05/30 11:53:35;;;;;;;8.80;4.13;;;23.50;91.30;;;;;;5071013;28;19924;-62
2023/05/30 11:56:02;;;;;;;8.32;3.72;;;23.50;91.50;;;;;;5063097;28;20040;-61
2023/05/30 11:58:29;;;;;;;8.52;3.35;;;23.70;91.90;;;;;;5070878;28;20048;-62
2023/05/30 12:00:56;;;;;;;5.45;3.72;;;23.70;91.10;;;;;;5070280;28;20056;-61
2023/05/30 12:03:23;;;;;;;4.90;3.35;;;23.90;91.40;;;;;;5067183;28;20087;-62
2023/05/30 12:05:51;;;;;;;7.50;3.95;;;24.30;92.40;;;;;;5064571;28;20044;-62
2023/05/30 12:08:18;;;;;;;7.85;3.58;;;24.40;90.40;;;;;;5070670;28;20040;-62
2023/05/30 12:10:45;;;;;;;;;;;24.50;90.30;;;;;;5071282;28;20527;-62
2023/05/30 12:13:12;;;;;;;7.28;4.38;;;24.40;88.90;;;;;;5063015;28;19920;-62
2023/05/30 12:15:39;;;;;;;;;;;24.40;90.60;;;;;;5071152;28;20037;-61
2023/05/30 12:18:06;;;;;;;12.25;4.43;;;24.00;92.00;;;;;;5062994;28;19966;-60
2023/05/30 12:20:42;;;;;;;7.88;4.10;;;23.70;90.30;;;;;;5070214;28;20050;-61
2023/05/30 12:23:10;;;;;;;11.07;4.07;;;23.00;91.90;;;;;;5070245;28;20493;-60
2023/05/30 12:25:37;;;;;;;8.73;4.07;;;22.50;91.90;;;;;;5070595;28;20045;-60
2023/05/30 12:28:04;;;;;;;8.70;4.30;;;22.20;92.00;;;;;;5062733;28;20040;-60
2023/05/30 12:30:34;;;;;;;9.80;4.72;;;22.20;93.50;;;;;;5070725;28;20135;-61
2023/05/30 12:33:24;;;;;;;7.85;4.13;;;22.00;93.70;;;;;;5070501;28;20079;-61
2023/05/30 12:35:55;;;;;;;11.35;4.22;;;21.70;92.70;;;;;;5065572;28;20044;-61
2023/05/30 12:38:23;;;;;;;7.38;3.78;;;21.40;92.30;;;;;;5068885;28;20041;-59
2023/05/30 12:40:51;;;;;;;11.90;4.38;;;21.20;93.30;;;;;;5069621;28;20469;-59
2023/05/30 12:43:28;;;;;;;8.20;3.97;;;20.90;96.30;;;;;;5070356;28;20055;-60
2023/05/30 12:46:05;;;;;;;10.00;3.97;;;20.70;95.60;;;;;;5061658;28;20044;-58
2023/05/30 12:48:32;;;;;;;8.43;3.67;;;20.60;96.60;;;;;;5071669;28;20505;-61
2023/05/30 12:51:02;;;;;;;11.55;3.97;;;20.50;98.00;;;;;;5074115;28;20048;-61
2023/05/30 12:53:30;;;;;;;8.50;3.85;;;20.50;97.40;;;;;;5074201;28;20477;-61
2023/05/30 12:55:56;;;;;;;8.88;4.25;;;20.60;97.70;;;;;;5067895;28;20036;-61
2023/05/30 12:58:23;;;;;;;6.13;4.00;;;20.60;98.50;;;;;;5074654;28;20419;-61